Time;durP1;ratioP1;P1;durP2;ratioP2;P2;SDS_P1;SDS_P2;PMS_P1;PMS_P2;Temp;Humidity;BMP_temperature;BMP_pressure;BME280_temperature;BME280_humidity;BME280_pressure;Samples;Min_cycle;Max_cycle;Signal;HPM_P1;HPM_P2
2022/04/22 00:00:24;;;;;;;12.03;11.13;;;7.00;23.90;;;;;;5062617;28;20425;-70
2022/04/22 00:02:50;;;;;;;10.37;9.47;;;6.80;24.80;;;;;;5054807;28;20192;-69
2022/04/22 00:05:16;;;;;;;11.47;10.53;;;6.60;25.30;;;;;;5054543;28;20207;-69
2022/04/22 00:07:42;;;;;;;11.23;10.32;;;6.60;25.60;;;;;;5067765;28;20543;-69
2022/04/22 00:10:09;;;;;;;10.07;9.20;;;6.70;25.20;;;;;;5074212;28;20190;-69
2022/04/22 00:12:35;;;;;;;11.25;10.35;;;6.70;24.70;;;;;;5074849;28;20245;-69
2022/04/22 00:15:00;;;;;;;9.83;9.13;;;6.70;25.00;;;;;;5074495;28;20196;-69
2022/04/22 00:17:26;;;;;;;10.80;10.03;;;6.70;25.30;;;;;;5074277;28;20191;-69
2022/04/22 00:19:52;;;;;;;11.13;10.37;;;6.70;24.60;;;;;;5074471;28;20172;-69
2022/04/22 00:22:17;;;;;;;11.30;10.30;;;6.60;25.30;;;;;;5074114;28;20442;-70
2022/04/22 00:24:43;;;;;;;9.30;8.70;;;6.70;25.20;;;;;;5074483;28;20697;-70
2022/04/22 00:27:08;;;;;;;11.30;10.40;;;6.70;25.10;;;;;;5073991;28;20257;-69
2022/04/22 00:29:34;;;;;;;11.83;10.90;;;6.60;25.30;;;;;;5074179;28;20183;-69
2022/04/22 00:31:59;;;;;;;12.50;11.43;;;6.50;25.50;;;;;;5074061;28;20527;-69
2022/04/22 00:34:25;;;;;;;9.23;8.43;;;6.60;25.60;;;;;;5074186;28;20260;-70
2022/04/22 00:36:50;;;;;;;9.93;8.93;;;6.50;25.60;;;;;;5073827;28;20187;-70
2022/04/22 00:39:16;;;;;;;10.10;9.30;;;6.50;25.70;;;;;;5074061;28;20180;-71
2022/04/22 00:41:42;;;;;;;9.40;8.70;;;6.40;25.80;;;;;;5074200;28;20172;-69
2022/04/22 00:44:08;;;;;;;10.05;9.25;;;6.40;25.60;;;;;;5074379;28;20210;-69
2022/04/22 00:46:33;;;;;;;11.33;10.33;;;6.30;25.50;;;;;;5073778;28;20175;-69
2022/04/22 00:48:59;;;;;;;8.80;8.10;;;6.30;25.90;;;;;;5074012;28;20267;-69
2022/04/22 00:51:24;;;;;;;9.30;8.50;;;6.20;25.90;;;;;;5072537;28;20666;-70
2022/04/22 00:53:52;;;;;;;10.20;9.47;;;6.00;26.60;;;;;;5073538;28;20178;-69
2022/04/22 00:56:18;;;;;;;8.80;8.20;;;6.10;27.10;;;;;;5072682;28;20643;-70
2022/04/22 00:58:46;;;;;;;10.43;9.32;;;6.00;26.90;;;;;;5072447;28;20183;-69
2022/04/22 01:01:13;;;;;;;10.48;9.60;;;6.00;26.80;;;;;;5072594;28;20182;-70
2022/04/22 01:03:39;;;;;;;10.40;9.50;;;6.00;27.10;;;;;;5072352;28;20595;-69
2022/04/22 01:11:39;;;;;;;10.18;9.32;;;5.90;27.10;;;;;;5072209;28;20602;-69
2022/04/22 01:14:06;;;;;;;10.27;9.52;;;5.90;26.90;;;;;;5072396;28;20458;-71
2022/04/22 01:16:33;;;;;;;11.27;10.43;;;5.90;26.70;;;;;;5072761;28;20609;-70
2022/04/22 01:18:59;;;;;;;11.45;10.35;;;5.80;26.60;;;;;;5072087;28;20214;-69
2022/04/22 01:21:24;;;;;;;10.70;9.17;;;5.70;27.00;;;;;;5072519;28;20178;-69
2022/04/22 01:23:50;;;;;;;13.47;10.07;;;5.70;27.00;;;;;;5072250;28;20550;-69
2022/04/22 01:26:16;;;;;;;10.20;9.30;;;5.60;27.00;;;;;;5072110;28;20432;-71
2022/04/22 01:28:42;;;;;;;9.63;8.73;;;5.60;27.00;;;;;;5071927;28;20259;-69
2022/04/22 01:31:07;;;;;;;10.63;9.73;;;5.50;27.40;;;;;;5072006;28;20948;-69
2022/04/22 01:33:33;;;;;;;10.57;9.70;;;5.60;27.50;;;;;;5071751;28;20194;-69
2022/04/22 01:36:00;;;;;;;9.43;8.63;;;5.60;27.20;;;;;;5072026;28;20193;-69
2022/04/22 01:38:26;;;;;;;12.20;8.63;;;5.50;27.20;;;;;;5071354;28;20545;-68
2022/04/22 01:40:51;;;;;;;10.70;9.77;;;5.50;27.60;;;;;;5070701;28;20193;-69
2022/04/22 01:43:17;;;;;;;11.13;10.20;;;5.40;27.60;;;;;;5072099;28;20235;-69
2022/04/22 01:45:43;;;;;;;10.00;9.15;;;5.40;27.90;;;;;;5071949;28;20193;-69
2022/04/22 01:48:09;;;;;;;10.53;9.70;;;5.40;27.70;;;;;;5071469;28;20229;-69
2022/04/22 01:50:35;;;;;;;10.87;9.83;;;5.30;27.70;;;;;;5071854;28;20196;-69
2022/04/22 01:53:00;;;;;;;11.50;10.27;;;5.20;28.50;;;;;;5071979;28;20412;-70
2022/04/22 01:55:27;;;;;;;9.93;8.93;;;5.10;28.70;;;;;;5067189;22;110301;-68
2022/04/22 01:57:53;;;;;;;11.55;10.50;;;5.10;28.80;;;;;;5032424;28;20245;-71
2022/04/22 02:00:19;;;;;;;10.20;9.25;;;5.10;29.10;;;;;;5032381;28;20209;-70
2022/04/22 02:02:45;;;;;;;10.40;8.47;;;5.00;29.40;;;;;;5032630;28;20265;-70
2022/04/22 02:05:10;;;;;;;9.17;8.27;;;5.00;29.40;;;;;;5032600;28;20191;-69
2022/04/22 02:07:36;;;;;;;9.23;8.43;;;5.00;29.20;;;;;;5032657;28;20195;-70
2022/04/22 02:10:02;;;;;;;9.70;8.73;;;5.10;28.70;;;;;;5032837;28;20695;-70
2022/04/22 02:12:27;;;;;;;9.73;8.83;;;5.10;28.40;;;;;;5032965;28;20214;-70
2022/04/22 02:14:53;;;;;;;9.77;8.87;;;5.00;28.30;;;;;;5025862;28;20462;-70
2022/04/22 02:17:19;;;;;;;10.50;9.60;;;5.00;28.40;;;;;;5015866;28;20215;-70
2022/04/22 02:19:44;;;;;;;11.30;10.33;;;5.00;28.90;;;;;;5012805;28;20640;-70
2022/04/22 02:22:10;;;;;;;9.13;8.43;;;5.00;28.60;;;;;;5017183;28;20175;-70
2022/04/22 02:24:36;;;;;;;10.00;8.77;;;4.90;28.60;;;;;;5032304;28;20546;-70
2022/04/22 02:29:46;;;;;;;9.38;8.27;;;4.70;29.60;;;;;;5032686;28;20209;-69
2022/04/22 02:32:11;;;;;;;10.07;9.07;;;4.80;29.60;;;;;;5032373;28;20641;-69
2022/04/22 02:34:37;;;;;;;8.43;7.83;;;4.80;29.40;;;;;;5019845;28;20210;-69
2022/04/22 02:37:02;;;;;;;11.10;9.93;;;4.70;29.40;;;;;;5032306;28;20176;-69
2022/04/22 02:39:28;;;;;;;9.17;8.33;;;4.60;29.40;;;;;;5032014;28;20202;-69
2022/04/22 02:47:21;;;;;;;10.13;9.20;;;4.60;30.70;;;;;;5031764;28;20214;-68
2022/04/22 02:49:47;;;;;;;10.17;9.17;;;4.50;31.00;;;;;;5031839;28;20632;-68
2022/04/22 02:52:14;;;;;;;9.07;8.27;;;4.50;31.00;;;;;;5032762;28;20656;-69
2022/04/22 02:54:39;;;;;;;9.52;8.43;;;4.40;30.90;;;;;;5031800;28;20615;-69
2022/04/22 02:57:06;;;;;;;12.20;10.37;;;4.50;30.70;;;;;;5031975;28;20174;-69
2022/04/22 02:59:32;;;;;;;9.98;9.07;;;4.50;30.30;;;;;;5027824;28;20498;-69
2022/04/22 03:01:58;;;;;;;10.17;9.00;;;4.50;30.00;;;;;;5012185;28;20255;-69
2022/04/22 03:04:25;;;;;;;10.02;9.02;;;4.50;30.60;;;;;;5031218;28;20206;-69
2022/04/22 03:06:51;;;;;;;9.23;8.23;;;4.40;31.60;;;;;;5031562;28;20183;-68
2022/04/22 03:09:17;;;;;;;10.33;9.20;;;4.40;31.20;;;;;;5031483;28;20187;-69
2022/04/22 03:11:42;;;;;;;11.40;9.33;;;4.40;31.30;;;;;;5031844;28;20209;-68
2022/04/22 03:14:08;;;;;;;10.03;9.17;;;4.30;31.60;;;;;;5031603;28;20406;-68
2022/04/22 03:16:35;;;;;;;11.37;9.50;;;4.30;31.70;;;;;;5031758;28;20278;-68
2022/04/22 03:19:00;;;;;;;9.77;8.95;;;4.30;30.80;;;;;;5031555;28;20266;-68
2022/04/22 03:21:26;;;;;;;11.37;10.27;;;4.30;30.80;;;;;;5031692;28;20183;-68
2022/04/22 03:23:52;;;;;;;10.73;9.70;;;4.30;30.40;;;;;;5032064;28;20262;-69
2022/04/22 03:26:18;;;;;;;9.77;8.80;;;4.20;30.80;;;;;;5032105;28;20221;-68
2022/04/22 03:28:44;;;;;;;11.80;9.13;;;4.30;30.30;;;;;;5031597;28;20199;-68
2022/04/22 03:31:09;;;;;;;11.60;9.93;;;4.20;30.60;;;;;;5031402;28;20521;-69
2022/04/22 03:33:35;;;;;;;9.17;8.27;;;4.10;31.20;;;;;;5031656;28;20187;-68
2022/04/22 03:36:00;;;;;;;10.07;9.07;;;4.10;31.10;;;;;;5033395;28;20567;-68
2022/04/22 03:38:27;;;;;;;10.17;8.00;;;4.10;31.50;;;;;;5034998;28;20702;-68
2022/04/22 03:40:53;;;;;;;8.40;7.60;;;4.10;31.30;;;;;;5035349;28;20736;-68
2022/04/22 03:43:20;;;;;;;9.93;8.97;;;4.10;30.80;;;;;;5035768;28;20270;-68
2022/04/22 03:45:46;;;;;;;10.55;9.45;;;4.10;30.80;;;;;;5034965;28;20899;-68
2022/04/22 03:48:15;;;;;;;10.33;9.30;;;4.10;30.40;;;;;;5035063;28;20207;-67
2022/04/22 03:50:41;;;;;;;12.80;11.68;;;4.00;30.20;;;;;;5034259;28;20655;-68
2022/04/22 03:53:14;;;;;;;10.35;8.90;;;4.00;30.00;;;;;;5022939;28;20192;-68
2022/04/22 03:55:40;;;;;;;9.40;8.40;;;3.90;30.60;;;;;;5014983;28;20303;-67
2022/04/22 03:58:12;;;;;;;12.73;9.80;;;3.90;30.40;;;;;;5015519;28;20192;-69
2022/04/22 04:00:49;;;;;;;11.00;9.27;;;3.90;30.80;;;;;;5034528;28;20183;-67
2022/04/22 04:03:16;;;;;;;9.65;8.77;;;3.80;30.60;;;;;;5035088;28;20193;-68
2022/04/22 04:05:51;;;;;;;11.10;10.07;;;3.80;30.70;;;;;;5035065;28;20273;-68
2022/04/22 04:08:18;;;;;;;10.27;9.30;;;3.80;30.80;;;;;;5034733;28;20205;-68
2022/04/22 04:16:13;;;;;;;10.38;9.57;;;3.70;31.20;;;;;;5034596;28;20233;-68
2022/04/22 04:18:39;;;;;;;10.50;9.40;;;3.60;31.30;;;;;;5034549;28;20211;-68
2022/04/22 04:23:54;;;;;;;11.95;10.30;;;3.60;30.90;;;;;;5034738;28;20210;-68
2022/04/22 04:26:22;;;;;;;11.50;10.43;;;3.60;30.80;;;;;;5034478;28;20186;-68
2022/04/22 04:28:50;;;;;;;11.48;9.98;;;3.60;30.80;;;;;;5033194;28;20289;-67
2022/04/22 04:31:16;;;;;;;12.55;10.35;;;3.70;31.00;;;;;;5034419;28;20167;-68
2022/04/22 04:33:45;;;;;;;13.88;11.32;;;3.70;31.10;;;;;;5034448;28;20552;-68
2022/04/22 04:36:12;;;;;;;11.70;10.50;;;3.70;31.90;;;;;;5034732;28;20276;-68
2022/04/22 04:38:38;;;;;;;14.38;9.90;;;3.70;31.10;;;;;;5034384;28;20579;-68
2022/04/22 04:41:07;;;;;;;10.65;9.60;;;3.70;31.60;;;;;;5034929;28;20183;-68
2022/04/22 04:43:32;;;;;;;9.60;8.70;;;3.70;31.90;;;;;;5034418;28;20565;-68
2022/04/22 04:45:58;;;;;;;22.70;11.43;;;3.80;31.50;;;;;;5028993;28;20254;-68
2022/04/22 04:48:24;;;;;;;12.10;10.90;;;3.90;31.20;;;;;;5013242;28;20207;-68
2022/04/22 04:50:54;;;;;;;11.40;9.83;;;3.90;31.10;;;;;;5014199;28;20254;-69
2022/04/22 04:53:21;;;;;;;11.32;10.32;;;3.90;30.70;;;;;;5014466;28;20215;-68
2022/04/22 04:55:47;;;;;;;11.88;10.60;;;4.00;30.70;;;;;;5023317;28;20202;-68
2022/04/22 04:58:13;;;;;;;11.77;10.63;;;4.10;30.80;;;;;;5033641;28;20176;-68
2022/04/22 05:00:38;;;;;;;16.27;11.00;;;4.20;30.30;;;;;;5033336;28;20221;-68
2022/04/22 05:03:04;;;;;;;12.07;10.93;;;4.20;29.90;;;;;;5033818;28;20209;-68
2022/04/22 05:05:30;;;;;;;9.88;8.95;;;4.30;29.80;;;;;;5032089;28;20572;-68
2022/04/22 05:07:58;;;;;;;9.30;8.47;;;4.40;29.60;;;;;;5033306;28;20199;-68
2022/04/22 05:10:29;;;;;;;11.32;10.30;;;4.40;29.50;;;;;;5033429;28;20187;-67
2022/04/22 05:12:55;;;;;;;14.02;10.60;;;4.50;29.20;;;;;;5034380;28;20181;-68
2022/04/22 05:15:22;;;;;;;13.70;12.45;;;4.60;28.80;;;;;;5033827;28;20195;-69
2022/04/22 05:17:48;;;;;;;12.57;11.05;;;4.70;28.20;;;;;;5033306;28;20203;-68
2022/04/22 05:20:17;;;;;;;11.65;10.40;;;4.80;28.70;;;;;;5027865;28;20191;-69
2022/04/22 05:22:43;;;;;;;11.70;10.60;;;5.30;29.20;;;;;;5023596;28;20559;-68
2022/04/22 05:25:11;;;;;;;12.73;11.48;;;6.10;28.50;;;;;;5032695;28;20667;-69
2022/04/22 05:27:37;;;;;;;12.37;11.37;;;7.00;26.20;;;;;;5017573;28;20645;-69
2022/04/22 05:32:48;;;;;;;13.97;12.90;;;8.80;21.50;;;;;;5033379;28;20453;-69
2022/04/22 05:35:16;;;;;;;15.53;14.43;;;9.80;19.90;;;;;;5032901;28;20479;-68
2022/04/22 05:37:42;;;;;;;17.80;16.30;;;10.60;17.10;;;;;;5032825;28;20882;-69
2022/04/22 05:40:10;;;;;;;18.07;16.97;;;11.30;14.90;;;;;;5015528;28;20501;-70
2022/04/22 05:42:38;;;;;;;17.13;15.90;;;11.70;15.20;;;;;;5012238;28;20431;-70
2022/04/22 05:45:05;;;;;;;16.87;15.80;;;12.40;14.60;;;;;;5016418;28;20461;-70
2022/04/22 05:47:30;;;;;;;16.47;15.37;;;13.10;13.30;;;;;;5032479;28;20958;-70
2022/04/22 05:49:56;;;;;;;17.40;16.40;;;13.70;12.60;;;;;;5032811;28;20421;-71
2022/04/22 05:52:21;;;;;;;17.83;16.67;;;14.30;11.40;;;;;;5032605;28;20210;-71
2022/04/22 05:54:47;;;;;;;17.27;16.37;;;14.70;10.60;;;;;;5032730;28;20295;-71
2022/04/22 05:57:12;;;;;;;18.27;16.97;;;15.10;8.80;;;;;;5033015;28;20313;-71
2022/04/22 05:59:38;;;;;;;18.53;17.33;;;15.50;9.70;;;;;;5030559;28;20194;-71
2022/04/22 06:02:05;;;;;;;17.87;16.77;;;16.00;7.80;;;;;;5032820;28;20172;-71
2022/04/22 06:04:30;;;;;;;16.63;15.80;;;16.20;6.60;;;;;;5032092;28;20474;-72
2022/04/22 06:06:56;;;;;;;20.77;18.80;;;16.10;7.30;;;;;;5033478;28;20460;-71
2022/04/22 06:12:06;;;;;;;17.67;16.37;;;16.60;7.00;;;;;;5032937;28;20233;-70
2022/04/22 06:14:31;;;;;;;17.63;16.43;;;16.70;7.10;;;;;;5031897;28;20474;-70
2022/04/22 06:16:57;;;;;;;18.77;17.67;;;16.70;6.60;;;;;;5030945;28;20179;-70
2022/04/22 06:19:22;;;;;;;18.70;17.50;;;16.40;6.50;;;;;;5032790;28;20179;-71
2022/04/22 06:21:47;;;;;;;18.73;17.63;;;15.30;7.00;;;;;;5032104;28;20187;-70
2022/04/22 06:24:13;;;;;;;18.53;17.33;;;15.40;8.90;;;;;;5032063;28;20649;-70
2022/04/22 06:26:39;;;;;;;18.93;17.57;;;15.70;8.30;;;;;;5032197;28;20182;-70
2022/04/22 06:29:04;;;;;;;17.43;16.27;;;16.00;8.40;;;;;;5030609;28;20397;-70
2022/04/22 06:31:30;;;;;;;18.63;17.50;;;16.00;8.50;;;;;;5031894;28;20255;-70
2022/04/22 06:33:56;;;;;;;17.60;16.50;;;16.10;8.70;;;;;;5031448;28;20690;-70
2022/04/22 06:36:25;;;;;;;18.97;17.77;;;16.50;8.50;;;;;;5031889;28;20673;-73
2022/04/22 06:38:57;;;;;;;16.50;15.50;;;16.40;7.30;;;;;;5030496;28;20425;-71
2022/04/22 06:46:51;;;;;;;19.77;18.00;;;13.70;11.80;;;;;;5031870;28;20489;-70
2022/04/22 06:49:17;;;;;;;17.90;16.60;;;14.40;12.60;;;;;;5031467;28;20876;-70
2022/04/22 06:51:43;;;;;;;19.53;18.30;;;15.40;10.10;;;;;;5030851;28;20657;-70
2022/04/22 06:54:09;;;;;;;20.37;19.00;;;16.40;8.80;;;;;;5030483;28;20179;-70
2022/04/22 06:56:39;;;;;;;20.07;18.33;;;15.50;9.00;;;;;;5032223;28;20267;-69
2022/04/22 06:59:05;;;;;;;21.70;19.90;;;16.40;8.30;;;;;;5031681;28;20465;-69
2022/04/22 07:01:31;;;;;;;19.47;18.13;;;15.90;8.20;;;;;;5031705;28;20911;-68
2022/04/22 07:03:57;;;;;;;20.43;19.00;;;15.90;8.30;;;;;;5031910;28;20437;-69
2022/04/22 07:06:23;;;;;;;18.87;17.57;;;15.60;8.60;;;;;;5032014;28;20413;-74
2022/04/22 07:08:49;;;;;;;21.53;20.10;;;16.20;8.00;;;;;;5031698;28;20970;-70
2022/04/22 07:11:24;;;;;;;20.50;19.07;;;17.10;7.30;;;;;;5034745;28;20429;-70
2022/04/22 07:13:51;;;;;;;21.27;19.87;;;17.80;6.10;;;;;;5035832;28;20409;-70
2022/04/22 07:16:20;;;;;;;19.83;18.53;;;16.00;8.20;;;;;;5035282;28;20449;-70
2022/04/22 07:18:46;;;;;;;21.77;20.40;;;16.00;8.20;;;;;;5035520;28;20421;-68
2022/04/22 07:21:11;;;;;;;20.93;19.43;;;16.10;8.90;;;;;;5035880;28;20428;-70
2022/04/22 07:23:37;;;;;;;21.23;19.20;;;15.50;9.00;;;;;;5035710;28;20660;-69
2022/04/22 07:26:10;;;;;;;23.00;21.30;;;16.50;8.80;;;;;;5035632;28;20436;-70
2022/04/22 07:28:37;;;;;;;22.70;21.13;;;15.70;8.80;;;;;;5035141;28;20195;-70
2022/04/22 07:31:03;;;;;;;19.47;18.27;;;15.70;9.70;;;;;;5035170;28;20437;-70
2022/04/22 07:33:32;;;;;;;21.07;19.60;;;16.00;9.30;;;;;;5035549;28;20487;-70
2022/04/22 07:35:58;;;;;;;21.67;19.97;;;16.10;9.40;;;;;;5035415;28;20942;-70
2022/04/22 07:38:24;;;;;;;19.47;17.97;;;16.60;7.90;;;;;;5034102;28;20449;-70
2022/04/22 07:40:50;;;;;;;23.23;21.53;;;16.00;7.60;;;;;;5027216;28;20179;-70
2022/04/22 07:48:47;;;;;;;21.87;20.37;;;17.00;8.10;;;;;;5030864;28;20876;-70
2022/04/22 07:51:13;;;;;;;22.83;21.07;;;15.30;9.90;;;;;;5030300;28;20560;-68
2022/04/22 07:53:38;;;;;;;21.60;20.00;;;15.70;9.10;;;;;;5033315;28;20512;-68
2022/04/22 07:56:06;;;;;;;22.07;20.47;;;15.30;9.70;;;;;;5035141;28;20458;-70
2022/04/22 07:58:32;;;;;;;21.73;20.10;;;15.00;10.60;;;;;;5034396;28;20187;-71
2022/04/22 08:00:58;;;;;;;20.30;18.93;;;15.40;9.90;;;;;;5034444;28;20432;-70
2022/04/22 08:03:24;;;;;;;23.80;21.80;;;14.60;10.00;;;;;;5034535;28;20594;-74
2022/04/22 08:05:49;;;;;;;46.50;22.20;;;14.50;11.10;;;;;;5034444;28;20484;-71
2022/04/22 08:08:15;;;;;;;22.47;20.77;;;14.50;10.70;;;;;;5034714;28;20230;-69
2022/04/22 08:10:41;;;;;;;22.10;20.33;;;14.80;10.70;;;;;;5034329;28;20640;-69
2022/04/22 08:13:07;;;;;;;20.53;19.00;;;14.90;12.10;;;;;;5033221;28;20440;-69
2022/04/22 08:15:33;;;;;;;22.03;19.70;;;14.90;11.10;;;;;;5033635;28;20211;-70
2022/04/22 08:18:03;;;;;;;21.47;19.90;;;14.20;12.20;;;;;;5034202;28;20192;-70
2022/04/22 08:20:31;;;;;;;22.87;21.00;;;14.30;12.60;;;;;;5032642;28;20429;-70
2022/04/22 08:23:00;;;;;;;23.17;21.37;;;15.10;12.00;;;;;;5046052;28;20426;-70
2022/04/22 08:25:26;;;;;;;22.87;20.83;;;15.70;10.30;;;;;;5032845;28;20519;-70
2022/04/22 08:27:52;;;;;;;21.30;19.50;;;15.20;10.10;;;;;;5033863;28;20894;-71
2022/04/22 08:30:18;;;;;;;25.63;23.30;;;14.80;10.90;;;;;;5034243;28;20437;-69
2022/04/22 08:32:44;;;;;;;22.90;21.17;;;13.40;13.00;;;;;;5034329;28;20606;-70
2022/04/22 08:35:10;;;;;;;23.33;21.40;;;13.40;13.70;;;;;;5032862;28;20201;-70
2022/04/22 08:37:37;;;;;;;25.37;23.07;;;13.60;13.90;;;;;;5033599;28;20436;-70
2022/04/22 08:40:05;;;;;;;22.90;20.70;;;13.90;13.30;;;;;;5033900;28;20231;-69
2022/04/22 08:42:33;;;;;;;23.97;21.97;;;13.70;13.80;;;;;;5033521;28;20498;-70
2022/04/22 08:45:00;;;;;;;22.00;20.40;;;13.90;13.60;;;;;;5033620;28;20463;-70
2022/04/22 08:50:20;;;;;;;22.37;20.67;;;13.10;14.60;;;;;;5014206;28;20438;-70
2022/04/22 08:53:05;;;;;;;21.93;20.33;;;13.00;15.30;;;;;;5034012;28;20880;-71
2022/04/22 08:55:33;;;;;;;21.93;20.00;;;12.60;15.80;;;;;;5031474;28;20317;-71
2022/04/22 08:58:00;;;;;;;23.97;21.77;;;12.50;16.30;;;;;;5032081;28;20465;-70
2022/04/22 09:00:29;;;;;;;22.67;20.77;;;12.40;16.60;;;;;;5033852;28;20527;-71
2022/04/22 09:02:55;;;;;;;22.30;20.70;;;12.40;16.40;;;;;;5033831;28;20770;-71
2022/04/22 09:05:21;;;;;;;22.03;20.27;;;12.40;16.70;;;;;;5033279;28;20856;-70
2022/04/22 09:07:47;;;;;;;20.90;19.13;;;12.50;16.90;;;;;;5032863;28;20540;-69
2022/04/22 09:10:13;;;;;;;19.80;18.13;;;12.20;16.70;;;;;;5031894;28;20562;-68
2022/04/22 09:12:48;;;;;;;25.17;22.47;;;12.30;16.70;;;;;;5033406;28;20509;-68
2022/04/22 09:15:14;;;;;;;17.90;16.40;;;12.00;17.10;;;;;;5033778;28;20425;-69
2022/04/22 09:17:40;;;;;;;20.93;19.20;;;12.20;17.50;;;;;;5033562;28;20903;-69
2022/04/22 09:20:11;;;;;;;21.27;19.47;;;12.30;17.30;;;;;;5033606;28;20434;-70
2022/04/22 09:22:37;;;;;;;22.27;20.33;;;12.40;17.40;;;;;;5031899;28;20559;-70
2022/04/22 09:25:05;;;;;;;21.50;19.90;;;12.40;17.10;;;;;;5032143;28;20445;-68
2022/04/22 09:27:41;;;;;;;22.53;20.87;;;12.60;16.20;;;;;;5033327;28;20570;-68
2022/04/22 09:30:09;;;;;;;23.20;21.27;;;12.90;16.10;;;;;;5033707;28;20487;-69
2022/04/22 09:32:39;;;;;;;21.47;19.53;;;13.00;16.00;;;;;;5032846;28;20425;-68
2022/04/22 09:35:17;;;;;;;22.37;20.53;;;13.00;16.10;;;;;;5033416;28;20520;-69
2022/04/22 09:43:36;;;;;;;18.40;16.83;;;13.00;16.10;;;;;;5033069;28;20445;-69
2022/04/22 09:46:02;;;;;;;21.67;19.87;;;13.20;15.60;;;;;;5034281;28;20445;-69
2022/04/22 09:48:44;;;;;;;19.40;17.93;;;13.30;15.60;;;;;;5032035;28;20509;-69
2022/04/22 09:51:27;;;;;;;21.03;18.97;;;13.50;15.30;;;;;;5033165;28;20410;-69
2022/04/22 09:54:07;;;;;;;20.03;18.43;;;13.80;14.70;;;;;;5033248;28;20990;-68
2022/04/22 09:56:33;;;;;;;18.40;17.10;;;13.30;15.00;;;;;;5032899;28;20460;-69
2022/04/22 09:59:19;;;;;;;21.00;18.80;;;13.60;15.00;;;;;;5033275;28;20414;-70
2022/04/22 10:01:45;;;;;;;21.13;19.23;;;13.30;15.60;;;;;;5030025;28;20597;-69
2022/04/22 10:04:11;;;;;;;20.37;18.60;;;13.30;15.50;;;;;;5033240;28;20419;-69
2022/04/22 10:06:38;;;;;;;20.50;18.80;;;13.60;15.20;;;;;;5033026;28;20455;-72
2022/04/22 10:09:04;;;;;;;20.83;19.10;;;13.50;14.70;;;;;;5032327;28;20901;-71
2022/04/22 10:11:30;;;;;;;22.70;20.50;;;13.60;15.00;;;;;;5032302;28;20900;-71
2022/04/22 10:13:56;;;;;;;21.90;20.00;;;13.60;15.00;;;;;;5030620;28;20422;-71
2022/04/22 10:16:22;;;;;;;21.40;19.63;;;13.60;14.80;;;;;;5032174;28;20183;-70
2022/04/22 10:18:48;;;;;;;19.70;18.13;;;13.80;14.50;;;;;;5031839;28;20421;-70
2022/04/22 10:21:14;;;;;;;21.50;19.73;;;13.90;14.40;;;;;;5032134;28;20570;-71
2022/04/22 10:23:40;;;;;;;20.70;18.83;;;14.00;14.20;;;;;;5030676;28;20536;-71
2022/04/22 10:26:06;;;;;;;17.93;16.53;;;13.90;14.20;;;;;;5031911;28;20437;-71
2022/04/22 10:28:33;;;;;;;21.57;19.57;;;14.10;14.10;;;;;;5031760;28;20552;-72
2022/04/22 10:31:01;;;;;;;18.83;17.33;;;14.10;13.80;;;;;;5032071;28;20255;-71
2022/04/22 10:33:28;;;;;;;21.17;19.40;;;14.30;14.20;;;;;;5030768;28;20482;-71
2022/04/22 10:35:59;;;;;;;20.50;18.70;;;14.30;13.60;;;;;;5032232;28;20943;-71
2022/04/22 10:38:38;;;;;;;22.70;21.10;;;14.50;12.80;;;;;;5031279;28;20486;-71
2022/04/22 10:41:14;;;;;;;20.63;19.13;;;14.70;12.90;;;;;;5030457;28;20447;-71
2022/04/22 10:43:40;;;;;;;17.93;16.53;;;14.40;12.70;;;;;;5031674;28;20406;-70
2022/04/22 10:49:15;;;;;;;19.47;18.03;;;14.70;12.90;;;;;;5031636;28;20471;-73
2022/04/22 10:52:09;;;;;;;21.10;19.57;;;14.90;12.30;;;;;;5017839;28;20439;-72
2022/04/22 10:54:53;;;;;;;20.00;18.33;;;15.00;12.70;;;;;;5012219;28;20531;-71
2022/04/22 10:57:24;;;;;;;20.90;19.23;;;14.80;12.40;;;;;;5012689;28;20466;-71
2022/04/22 11:00:08;;;;;;;19.70;18.27;;;14.80;12.60;;;;;;5013078;28;20418;-71
2022/04/22 11:02:43;;;;;;;21.70;20.00;;;15.00;12.10;;;;;;5012151;28;20409;-70
2022/04/22 11:05:20;;;;;;;20.77;19.27;;;15.00;12.20;;;;;;5011790;28;20429;-71
2022/04/22 11:07:53;;;;;;;20.17;18.77;;;15.20;12.00;;;;;;5029543;28;20467;-70
2022/04/22 11:10:19;;;;;;;19.10;17.90;;;15.40;12.10;;;;;;5013642;28;20425;-70
2022/04/22 11:12:54;;;;;;;21.00;19.27;;;15.40;11.70;;;;;;5011919;28;20912;-71
2022/04/22 11:15:47;;;;;;;20.70;19.27;;;15.30;11.80;;;;;;5027569;28;20452;-69
2022/04/22 11:18:14;;;;;;;24.40;22.37;;;15.50;12.20;;;;;;5023870;28;20425;-69
2022/04/22 11:20:52;;;;;;;20.67;19.17;;;15.20;11.70;;;;;;5022085;28;20428;-69
2022/04/22 11:23:18;;;;;;;20.53;19.10;;;15.20;12.00;;;;;;5028317;28;20420;-69
2022/04/22 11:25:46;;;;;;;19.77;18.17;;;15.20;11.90;;;;;;5027574;28;20433;-69
2022/04/22 11:28:13;;;;;;;20.70;18.90;;;15.30;12.10;;;;;;5016151;28;20466;-70
2022/04/22 11:30:40;;;;;;;22.97;21.10;;;15.40;12.50;;;;;;5008114;28;20536;-70
2022/04/22 11:33:44;;;;;;;20.00;18.30;;;15.40;11.20;;;;;;5021369;28;20421;-69
2022/04/22 11:36:10;;;;;;;21.33;19.70;;;15.50;12.00;;;;;;5019955;28;20451;-69
2022/04/22 11:38:44;;;;;;;19.23;17.73;;;15.70;11.40;;;;;;5007067;28;20422;-74
2022/04/22 11:41:13;;;;;;;20.93;19.40;;;15.60;11.00;;;;;;5009678;28;20182;-69
2022/04/22 11:43:39;;;;;;;21.37;19.87;;;15.80;11.10;;;;;;5011670;28;20966;-69
2022/04/22 11:46:04;;;;;;;22.50;20.83;;;15.90;11.30;;;;;;5010306;28;20440;-70
2022/04/22 11:48:30;;;;;;;20.33;19.03;;;15.90;10.70;;;;;;5011342;28;20618;-69
2022/04/22 11:51:01;;;;;;;21.67;20.10;;;16.20;10.60;;;;;;5011353;28;20184;-68
2022/04/22 11:53:31;;;;;;;18.70;17.07;;;16.10;10.50;;;;;;5011190;28;20411;-70
2022/04/22 11:55:58;;;;;;;19.77;18.47;;;16.10;10.20;;;;;;5012657;28;21067;-69
2022/04/22 11:58:24;;;;;;;18.83;17.73;;;16.20;9.90;;;;;;5014600;28;20513;-69
2022/04/22 12:06:20;;;;;;;20.63;19.23;;;16.60;10.40;;;;;;5015016;28;20434;-72
2022/04/22 12:08:53;;;;;;;31.73;20.70;;;16.60;9.80;;;;;;5021132;28;20465;-72
2022/04/22 12:11:19;;;;;;;20.73;19.33;;;16.70;9.80;;;;;;5029043;28;20529;-73
2022/04/22 12:13:47;;;;;;;20.97;19.27;;;16.70;9.80;;;;;;5028149;28;20969;-72
2022/04/22 12:16:23;;;;;;;20.40;19.07;;;16.60;9.70;;;;;;5010029;28;20455;-72
2022/04/22 12:18:50;;;;;;;20.07;18.70;;;16.80;9.90;;;;;;5014161;28;21025;-72
2022/04/22 12:21:18;;;;;;;18.37;17.23;;;17.10;9.50;;;;;;5013074;28;20450;-71
2022/04/22 12:23:46;;;;;;;19.40;18.13;;;16.90;9.50;;;;;;5027928;28;20438;-72
2022/04/22 12:26:19;;;;;;;19.30;18.03;;;16.80;9.50;;;;;;5023618;28;20445;-71
2022/04/22 12:28:59;;;;;;;19.60;18.17;;;16.90;9.50;;;;;;5029787;28;20476;-72
2022/04/22 12:31:26;;;;;;;18.90;17.70;;;17.10;9.10;;;;;;5030922;28;20517;-72
2022/04/22 12:34:00;;;;;;;18.70;17.37;;;17.20;9.00;;;;;;5030629;28;20492;-72
2022/04/22 12:36:26;;;;;;;19.40;18.20;;;17.20;9.00;;;;;;5032299;28;20422;-72
2022/04/22 12:38:51;;;;;;;20.90;19.60;;;17.00;8.90;;;;;;5029774;28;20463;-72
2022/04/22 12:41:23;;;;;;;19.97;18.67;;;17.20;9.20;;;;;;5030284;28;20592;-72
2022/04/22 12:43:52;;;;;;;25.23;21.53;;;17.40;9.20;;;;;;5013987;28;20393;-72
2022/04/22 12:52:23;;;;;;;19.00;17.80;;;17.30;8.30;;;;;;5033921;28;20421;-73
2022/04/22 12:54:49;;;;;;;19.83;18.73;;;17.20;8.30;;;;;;5034294;28;20468;-76
2022/04/22 12:57:23;;;;;;;20.97;19.67;;;17.40;8.40;;;;;;5032563;28;20789;-73
2022/04/22 12:59:54;;;;;;;21.63;20.07;;;17.30;8.50;;;;;;5033629;28;20766;-73
2022/04/22 13:02:30;;;;;;;22.40;20.80;;;17.20;8.70;;;;;;5032627;28;20505;-73
2022/04/22 13:04:58;;;;;;;18.87;17.83;;;17.30;8.40;;;;;;5033474;28;20860;-73
2022/04/22 13:07:36;;;;;;;19.50;18.30;;;17.30;9.00;;;;;;5032723;28;20414;-72
2022/04/22 13:10:04;;;;;;;20.67;19.30;;;17.60;8.40;;;;;;5033328;28;20895;-73
2022/04/22 13:12:29;;;;;;;21.00;19.60;;;17.80;8.30;;;;;;5033191;28;20907;-72
2022/04/22 13:14:55;;;;;;;20.43;19.07;;;17.90;7.80;;;;;;5033132;28;20465;-74
2022/04/22 13:17:26;;;;;;;18.50;17.40;;;18.00;7.30;;;;;;5032880;28;20179;-74
2022/04/22 13:19:52;;;;;;;19.40;18.07;;;18.00;8.20;;;;;;5033255;28;20176;-72
2022/04/22 13:22:18;;;;;;;20.60;19.40;;;18.20;8.00;;;;;;5033176;28;20417;-73
2022/04/22 13:24:44;;;;;;;19.40;18.30;;;18.30;7.10;;;;;;5033735;28;20446;-73
2022/04/22 13:27:12;;;;;;;21.27;20.07;;;18.10;6.80;;;;;;5033313;28;20410;-73
2022/04/22 13:29:37;;;;;;;20.30;19.10;;;17.70;7.50;;;;;;5031787;28;20876;-73
2022/04/22 13:32:03;;;;;;;20.27;19.00;;;18.00;7.60;;;;;;5033009;28;20418;-71
2022/04/22 13:34:29;;;;;;;22.03;20.53;;;18.00;7.20;;;;;;5032813;28;20245;-72
2022/04/22 13:36:54;;;;;;;20.07;18.80;;;18.10;7.10;;;;;;5033554;28;20182;-72
2022/04/22 13:39:20;;;;;;;20.63;19.27;;;17.90;7.70;;;;;;5031724;28;20185;-73
2022/04/22 13:41:45;;;;;;;20.00;18.87;;;18.00;7.10;;;;;;5031926;28;20541;-73